createdAt,value
2023-05-05T00:01:50.509Z,8.10
2023-05-05T00:04:18.446Z,8.08
2023-05-05T00:06:46.707Z,8.06
2023-05-05T00:09:15.282Z,8.06
2023-05-05T00:11:43.036Z,8.05
2023-05-05T00:14:11.328Z,8.08
2023-05-05T00:16:39.439Z,8.13
2023-05-05T00:19:07.340Z,8.09
2023-05-05T00:21:35.211Z,7.99
2023-05-05T00:24:03.199Z,7.86
2023-05-05T00:26:31.284Z,7.75
2023-05-05T00:28:59.376Z,7.65
2023-05-05T00:31:27.207Z,7.61
2023-05-05T00:33:55.377Z,7.60
2023-05-05T00:36:23.546Z,7.58
2023-05-05T00:38:51.608Z,7.55
2023-05-05T00:41:19.483Z,7.53
2023-05-05T00:43:47.454Z,7.50
2023-05-05T00:46:26.338Z,7.41
2023-05-05T00:48:54.776Z,7.32
2023-05-05T00:51:24.664Z,7.27
2023-05-05T00:53:53.045Z,7.22
2023-05-05T00:56:22.231Z,7.18
2023-05-05T00:58:50.326Z,7.15
2023-05-05T01:01:19.149Z,7.13
2023-05-05T01:03:47.167Z,7.10
2023-05-05T01:06:34.939Z,7.03
2023-05-05T01:09:04.519Z,6.96
2023-05-05T01:11:38.819Z,6.89
2023-05-05T01:14:09.971Z,6.77
2023-05-05T01:16:41.862Z,6.68
2023-05-05T01:19:19.028Z,6.61
2023-05-05T01:21:48.928Z,6.52
2023-05-05T01:24:35.759Z,6.45
2023-05-05T01:27:12.930Z,6.39
2023-05-05T01:29:41.940Z,6.33
2023-05-05T01:32:11.438Z,6.30
2023-05-05T01:34:44.076Z,6.27
2023-05-05T01:37:15.365Z,6.26
2023-05-05T01:39:43.888Z,6.26
2023-05-05T01:42:15.284Z,6.25
2023-05-05T01:44:44.706Z,6.21
2023-05-05T01:47:14.721Z,6.15
2023-05-05T01:49:46.959Z,6.07
2023-05-05T01:52:15.947Z,6.01
2023-05-05T01:54:48.022Z,5.99
2023-05-05T01:57:17.059Z,5.94
2023-05-05T01:59:44.974Z,5.90
2023-05-05T02:02:13.463Z,5.87
2023-05-05T02:04:43.688Z,5.83
2023-05-05T02:07:12.886Z,5.84
2023-05-05T02:09:42.571Z,5.81
2023-05-05T02:12:11.086Z,5.79
2023-05-05T02:14:39.655Z,5.79
2023-05-05T02:17:07.916Z,5.81
2023-05-05T02:19:40.190Z,5.79
2023-05-05T02:22:08.209Z,5.75
2023-05-05T02:24:36.341Z,5.73
2023-05-05T02:27:07.486Z,5.69
2023-05-05T02:29:37.021Z,5.62
2023-05-05T02:32:07.001Z,5.61
2023-05-05T02:34:36.705Z,5.65
2023-05-05T02:37:08.062Z,5.67
2023-05-05T02:39:47.798Z,5.70
2023-05-05T02:42:20.781Z,5.75
2023-05-05T02:44:50.898Z,5.80
2023-05-05T02:47:20.714Z,5.77
2023-05-05T02:49:49.216Z,5.76
2023-05-05T02:52:17.365Z,5.72
2023-05-05T02:54:45.750Z,5.67
2023-05-05T02:57:18.587Z,5.51
2023-05-05T02:59:53.349Z,5.33
2023-05-05T03:02:24.684Z,5.23
2023-05-05T03:04:59.324Z,5.24
2023-05-05T03:07:49.842Z,5.25
2023-05-05T03:10:21.794Z,5.22
2023-05-05T03:12:57.462Z,5.27
2023-05-05T03:15:43.623Z,5.34
2023-05-05T03:18:12.483Z,5.42
2023-05-05T03:20:42.813Z,5.51
2023-05-05T03:23:13.475Z,5.61
2023-05-05T03:25:46.058Z,5.68
2023-05-05T03:28:19.805Z,5.64
2023-05-05T03:30:47.949Z,5.63
2023-05-05T03:33:16.712Z,5.74
2023-05-05T03:35:44.682Z,6.10
2023-05-05T03:38:13.462Z,6.65
2023-05-05T03:40:44.590Z,7.32
2023-05-05T03:43:15.158Z,7.97
2023-05-05T03:45:43.220Z,8.37
2023-05-05T03:48:12.103Z,8.68
2023-05-05T03:50:40.885Z,8.94
2023-05-05T03:53:09.048Z,9.14
2023-05-05T03:55:37.528Z,9.20
2023-05-05T03:58:05.403Z,9.26
2023-05-05T04:00:33.365Z,9.05
2023-05-05T04:03:01.981Z,8.77
2023-05-05T04:05:30.736Z,8.56
2023-05-05T04:07:58.703Z,8.37
2023-05-05T04:10:26.994Z,8.14
2023-05-05T04:12:55.825Z,7.92
2023-05-05T04:15:23.864Z,7.87
2023-05-05T04:17:52.163Z,7.87
2023-05-05T04:20:20.241Z,7.82
2023-05-05T04:22:49.134Z,7.75
2023-05-05T04:25:18.895Z,7.75
2023-05-05T04:27:47.258Z,7.80
2023-05-05T04:30:15.649Z,7.89
2023-05-05T04:32:43.541Z,7.97
2023-05-05T04:35:11.799Z,8.06
2023-05-05T04:37:40.059Z,8.18
2023-05-05T04:40:09.580Z,8.26
2023-05-05T04:42:37.748Z,8.32
2023-05-05T04:45:07.141Z,8.41
2023-05-05T04:47:38.962Z,8.59
2023-05-05T04:50:08.207Z,8.78
2023-05-05T04:52:36.682Z,8.92
2023-05-05T04:55:05.372Z,9.14
2023-05-05T04:57:34.255Z,9.48
2023-05-05T05:00:04.950Z,9.96
2023-05-05T05:02:33.739Z,10.48
2023-05-05T05:05:01.684Z,11.03
2023-05-05T05:07:29.453Z,11.62
2023-05-05T05:09:57.475Z,12.19
2023-05-05T05:12:25.355Z,12.57
2023-05-05T05:14:53.307Z,12.97
2023-05-05T05:17:22.971Z,13.38
2023-05-05T05:19:51.089Z,13.77
2023-05-05T05:22:19.055Z,13.95
2023-05-05T05:24:47.025Z,13.97
2023-05-05T05:27:15.122Z,13.97
2023-05-05T05:29:44.596Z,13.89
2023-05-05T05:32:12.386Z,13.86
2023-05-05T05:34:40.835Z,13.79
2023-05-05T05:37:09.350Z,13.56
2023-05-05T05:39:38.000Z,13.34
2023-05-05T05:42:06.595Z,13.21
2023-05-05T05:44:34.753Z,13.14
2023-05-05T05:47:03.232Z,13.08
2023-05-05T05:49:31.088Z,13.12
2023-05-05T05:51:58.842Z,13.19
2023-05-05T05:54:26.733Z,13.31
2023-05-05T05:56:54.716Z,13.46
2023-05-05T05:59:22.969Z,13.43
2023-05-05T06:01:51.065Z,13.34
2023-05-05T06:04:19.194Z,13.23
2023-05-05T06:06:47.189Z,13.08
2023-05-05T06:09:15.468Z,13.16
2023-05-05T06:11:43.514Z,13.37
2023-05-05T06:14:11.595Z,13.74
2023-05-05T06:16:39.542Z,14.08
2023-05-05T06:19:10.929Z,14.42
2023-05-05T06:21:39.088Z,14.74
2023-05-05T06:24:06.812Z,15.12
2023-05-05T06:26:35.741Z,15.47
2023-05-05T06:29:04.018Z,15.66
2023-05-05T06:31:31.790Z,15.88
2023-05-05T06:33:59.754Z,16.08
2023-05-05T06:36:28.384Z,16.27
2023-05-05T06:38:56.234Z,16.44
2023-05-05T06:41:24.289Z,16.70
2023-05-05T06:43:52.137Z,17.11
2023-05-05T06:46:20.113Z,17.25
2023-05-05T06:48:48.071Z,17.43
2023-05-05T06:51:16.297Z,17.61
2023-05-05T06:53:44.504Z,17.70
2023-05-05T06:56:12.237Z,17.94
2023-05-05T06:58:40.184Z,18.29
2023-05-05T07:01:08.560Z,18.38
2023-05-05T07:03:36.506Z,18.39
2023-05-05T07:06:04.770Z,18.57
2023-05-05T07:08:32.541Z,18.75
2023-05-05T07:11:01.205Z,18.73
2023-05-05T07:13:29.112Z,18.74
2023-05-05T07:15:56.949Z,18.75
2023-05-05T07:18:25.037Z,18.88
2023-05-05T07:20:52.993Z,18.81
2023-05-05T07:23:20.993Z,18.94
2023-05-05T07:25:48.935Z,18.97
2023-05-05T07:28:17.216Z,18.81
2023-05-05T07:30:45.185Z,18.60
2023-05-05T07:33:13.048Z,18.47
2023-05-05T07:35:41.328Z,18.42
2023-05-05T07:38:10.793Z,18.61
2023-05-05T07:40:38.889Z,19.11
2023-05-05T07:43:06.607Z,19.39
2023-05-05T07:45:34.533Z,19.61
2023-05-05T07:48:02.347Z,19.96
2023-05-05T07:50:30.122Z,20.19
2023-05-05T07:53:10.534Z,20.43
2023-05-05T07:55:42.189Z,20.31
2023-05-05T07:58:11.271Z,20.02
2023-05-05T08:00:39.893Z,20.06
2023-05-05T08:03:11.264Z,20.40
2023-05-05T08:05:40.625Z,20.74
2023-05-05T08:08:08.766Z,21.23
2023-05-05T08:10:36.708Z,21.57
2023-05-05T08:13:04.938Z,21.67
2023-05-05T08:15:33.171Z,21.99
2023-05-05T08:18:01.023Z,22.18
2023-05-05T08:20:29.541Z,22.57
2023-05-05T08:22:57.225Z,23.02
2023-05-05T08:25:27.116Z,23.32
2023-05-05T08:27:55.267Z,23.57
2023-05-05T08:30:23.234Z,23.17
2023-05-05T08:32:51.915Z,22.51
2023-05-05T08:35:19.990Z,22.11
2023-05-05T08:37:47.866Z,22.05
2023-05-05T08:40:15.822Z,22.28
2023-05-05T08:42:46.591Z,22.74
2023-05-05T08:45:14.541Z,23.35
2023-05-05T08:47:43.644Z,23.79
2023-05-05T08:50:12.079Z,23.83
2023-05-05T08:52:41.468Z,23.59
2023-05-05T08:55:22.181Z,23.78
2023-05-05T08:57:50.039Z,23.35
2023-05-05T09:00:21.314Z,23.52
2023-05-05T09:02:49.483Z,23.82
2023-05-05T09:05:17.420Z,23.34
2023-05-05T09:07:47.310Z,22.86
2023-05-05T09:10:15.830Z,22.64
2023-05-05T09:12:44.229Z,22.70
2023-05-05T09:15:13.340Z,22.90
2023-05-05T09:17:41.673Z,23.34
2023-05-05T09:20:11.389Z,23.21
2023-05-05T09:22:40.573Z,22.77
2023-05-05T09:25:10.348Z,22.67
2023-05-05T09:27:43.105Z,22.84
2023-05-05T09:30:12.372Z,23.23
2023-05-05T09:32:44.808Z,23.14
2023-05-05T09:35:13.328Z,22.87
2023-05-05T09:37:41.195Z,22.87
2023-05-05T09:40:09.392Z,23.12
2023-05-05T09:42:38.039Z,23.05
2023-05-05T09:45:18.268Z,23.18
2023-05-05T09:47:47.036Z,23.08
2023-05-05T09:50:18.701Z,23.01
2023-05-05T09:53:00.160Z,22.53
2023-05-05T09:55:28.695Z,22.24
2023-05-05T09:57:56.800Z,22.37
2023-05-05T10:00:37.653Z,22.48
2023-05-05T10:03:05.676Z,22.83
2023-05-05T10:05:33.585Z,23.29
2023-05-05T10:08:12.940Z,23.19
2023-05-05T10:10:49.596Z,22.83
2023-05-05T10:13:18.861Z,22.70
2023-05-05T10:15:48.269Z,22.71
2023-05-05T10:18:19.348Z,22.63
2023-05-05T10:20:49.143Z,22.26
2023-05-05T10:23:20.290Z,22.11
2023-05-05T10:25:55.215Z,22.33
2023-05-05T10:28:26.217Z,23.15
2023-05-05T10:30:56.863Z,23.38
2023-05-05T10:33:32.133Z,23.17
2023-05-05T10:36:05.485Z,23.60
2023-05-05T10:38:34.325Z,23.87
2023-05-05T10:41:03.224Z,23.95
2023-05-05T10:43:32.123Z,23.99
2023-05-05T10:46:00.827Z,24.14
2023-05-05T10:48:31.968Z,23.88
2023-05-05T10:51:06.420Z,23.86
2023-05-05T10:53:42.947Z,24.32
2023-05-05T10:56:10.978Z,24.22
2023-05-05T10:58:55.382Z,23.98
2023-05-05T11:01:31.428Z,23.77
2023-05-05T11:04:18.603Z,23.47
2023-05-05T11:07:05.036Z,23.61
2023-05-05T11:09:33.364Z,23.90
2023-05-05T11:12:02.581Z,24.16
2023-05-05T11:14:30.447Z,24.39
2023-05-05T11:16:58.468Z,24.62
2023-05-05T11:19:45.753Z,24.68
2023-05-05T11:22:14.599Z,24.83
2023-05-05T11:24:42.805Z,25.14
2023-05-05T11:27:11.618Z,24.83
2023-05-05T11:29:58.506Z,24.90
2023-05-05T11:32:26.594Z,25.09
2023-05-05T11:34:54.648Z,24.68
2023-05-05T11:37:24.216Z,24.32
2023-05-05T11:40:16.799Z,24.28
2023-05-05T11:42:44.654Z,24.16
2023-05-05T11:45:25.057Z,23.86
2023-05-05T11:48:13.184Z,23.70
2023-05-05T11:50:41.126Z,23.91
2023-05-05T11:53:08.947Z,24.33
2023-05-05T11:55:36.955Z,24.84
2023-05-05T11:58:17.642Z,25.12
2023-05-05T12:00:45.735Z,24.82
2023-05-05T12:03:14.226Z,24.85
2023-05-05T12:05:42.244Z,24.88
2023-05-05T12:08:10.773Z,24.68
2023-05-05T12:10:38.891Z,24.37
2023-05-05T12:13:17.391Z,24.05
2023-05-05T12:15:45.739Z,23.70
2023-05-05T12:18:20.676Z,23.34
2023-05-05T12:20:49.511Z,23.42
2023-05-05T12:23:17.478Z,23.08
2023-05-05T12:25:46.921Z,23.01
2023-05-05T12:28:14.765Z,23.09
2023-05-05T12:30:42.698Z,22.77
2023-05-05T12:33:10.846Z,22.75
2023-05-05T12:35:38.969Z,22.89
2023-05-05T12:38:06.939Z,23.13
2023-05-05T12:40:45.137Z,23.34
2023-05-05T12:43:32.752Z,23.60
2023-05-05T12:46:00.843Z,23.79
2023-05-05T12:48:28.761Z,23.85
2023-05-05T12:51:10.098Z,24.01
2023-05-05T12:53:38.574Z,24.25
2023-05-05T12:56:06.429Z,24.32
2023-05-05T12:58:48.671Z,24.13
2023-05-05T13:01:16.919Z,23.91
2023-05-05T13:03:45.084Z,23.88
2023-05-05T13:06:20.827Z,23.76
2023-05-05T13:08:48.699Z,23.60
2023-05-05T13:11:16.884Z,23.45
2023-05-05T13:13:44.854Z,23.44
2023-05-05T13:16:12.773Z,23.27
2023-05-05T13:18:44.788Z,23.19
2023-05-05T13:21:13.065Z,23.43
2023-05-05T13:23:44.499Z,23.64
2023-05-05T13:26:13.485Z,23.84
2023-05-05T13:28:41.555Z,23.86
2023-05-05T13:31:09.450Z,23.69
2023-05-05T13:33:37.604Z,23.27
2023-05-05T13:36:05.773Z,22.92
2023-05-05T13:38:34.079Z,22.56
2023-05-05T13:41:02.330Z,22.28
2023-05-05T13:43:30.284Z,21.90
2023-05-05T13:46:08.767Z,21.65
2023-05-05T13:48:44.240Z,21.51
2023-05-05T13:51:12.116Z,21.51
2023-05-05T13:53:43.759Z,21.64
2023-05-05T13:56:11.529Z,21.74
2023-05-05T13:58:39.497Z,21.73
2023-05-05T14:01:07.691Z,21.76
2023-05-05T14:03:36.011Z,21.77
2023-05-05T14:06:04.318Z,21.84
2023-05-05T14:08:32.188Z,21.74
2023-05-05T14:11:00.052Z,21.59
2023-05-05T14:13:28.633Z,21.64
2023-05-05T14:15:58.359Z,21.65
2023-05-05T14:18:26.424Z,21.54
2023-05-05T14:20:54.809Z,21.39
2023-05-05T14:23:22.968Z,21.24
2023-05-05T14:25:50.956Z,21.25
2023-05-05T14:28:18.895Z,21.32
2023-05-05T14:30:46.883Z,21.39
2023-05-05T14:33:14.843Z,21.53
2023-05-05T14:35:42.736Z,21.59
2023-05-05T14:38:10.578Z,21.54
2023-05-05T14:40:38.526Z,21.42
2023-05-05T14:43:06.413Z,21.39
2023-05-05T14:45:34.690Z,21.50
2023-05-05T14:48:02.778Z,21.56
2023-05-05T14:50:30.832Z,21.41
2023-05-05T14:52:58.692Z,21.26
2023-05-05T14:55:26.672Z,21.16
2023-05-05T14:57:54.632Z,21.09
2023-05-05T15:00:22.590Z,21.14
2023-05-05T15:02:50.515Z,21.25
2023-05-05T15:05:18.632Z,21.36
2023-05-05T15:07:46.453Z,21.45
2023-05-05T15:10:14.467Z,21.55
2023-05-05T15:12:43.221Z,21.65
2023-05-05T15:15:11.832Z,21.75
2023-05-05T15:17:41.841Z,21.71
2023-05-05T15:20:10.126Z,21.56
2023-05-05T15:22:38.235Z,21.45
2023-05-05T15:25:09.799Z,21.36
2023-05-05T15:27:38.958Z,21.37
2023-05-05T15:30:07.373Z,21.43
2023-05-05T15:32:35.565Z,21.49
2023-05-05T15:35:03.573Z,21.46
2023-05-05T15:37:31.845Z,21.37
2023-05-05T15:39:59.908Z,21.30
2023-05-05T15:42:27.832Z,21.29
2023-05-05T15:44:55.615Z,21.24
2023-05-05T15:47:23.532Z,21.26
2023-05-05T15:49:51.588Z,21.34
2023-05-05T15:52:19.548Z,21.43
2023-05-05T15:54:47.314Z,21.53
2023-05-05T15:57:15.275Z,21.56
2023-05-05T15:59:43.048Z,21.51
2023-05-05T16:02:11.031Z,21.51
2023-05-05T16:04:39.089Z,21.52
2023-05-05T16:07:06.853Z,21.49
2023-05-05T16:09:34.909Z,21.45
2023-05-05T16:12:02.980Z,21.46
2023-05-05T16:14:33.728Z,21.45
2023-05-05T16:17:04.415Z,21.40
2023-05-05T16:19:32.346Z,21.35
2023-05-05T16:22:00.393Z,21.26
2023-05-05T16:24:28.568Z,21.19
2023-05-05T16:26:56.652Z,21.09
2023-05-05T16:29:24.703Z,20.99
2023-05-05T16:31:52.717Z,20.90
2023-05-05T16:34:20.647Z,20.84
2023-05-05T16:36:48.608Z,20.75
2023-05-05T16:39:16.577Z,20.67
2023-05-05T16:41:44.654Z,20.65
2023-05-05T16:44:12.957Z,20.62
2023-05-05T16:46:40.972Z,20.54
2023-05-05T16:49:09.122Z,20.44
2023-05-05T16:51:36.934Z,20.36
2023-05-05T16:54:04.907Z,20.31
2023-05-05T16:56:32.759Z,20.22
2023-05-05T16:59:00.740Z,20.12
2023-05-05T17:01:28.929Z,20.01
2023-05-05T17:04:01.883Z,19.88
2023-05-05T17:06:32.964Z,19.73
2023-05-05T17:09:00.999Z,19.55
2023-05-05T17:11:29.174Z,19.36
2023-05-05T17:13:57.142Z,19.15
2023-05-05T17:16:25.099Z,18.88
2023-05-05T17:18:53.805Z,18.58
2023-05-05T17:21:21.664Z,18.31
2023-05-05T17:23:49.637Z,18.01
2023-05-05T17:26:17.519Z,17.72
2023-05-05T17:28:46.068Z,17.43
2023-05-05T17:31:13.956Z,17.11
2023-05-05T17:33:41.805Z,16.84
2023-05-05T17:36:09.986Z,16.61
2023-05-05T17:38:37.847Z,16.40
2023-05-05T17:41:06.539Z,16.17
2023-05-05T17:43:34.501Z,15.95
2023-05-05T17:46:02.362Z,15.74
2023-05-05T17:48:30.642Z,15.55
2023-05-05T17:50:58.623Z,15.35
2023-05-05T17:53:26.716Z,15.19
2023-05-05T17:55:54.966Z,15.06
2023-05-05T17:58:22.923Z,14.95
2023-05-05T18:00:51.212Z,14.83
2023-05-05T18:03:19.576Z,14.72
2023-05-05T18:05:47.548Z,14.62
2023-05-05T18:08:15.823Z,14.53
2023-05-05T18:10:43.621Z,14.45
2023-05-05T18:13:11.519Z,14.36
2023-05-05T18:15:40.378Z,14.25
2023-05-05T18:18:08.348Z,14.13
2023-05-05T18:20:36.494Z,14.01
2023-05-05T18:23:04.358Z,13.89
2023-05-05T18:25:32.623Z,13.78
2023-05-05T18:28:00.716Z,13.70
2023-05-05T18:30:28.472Z,13.64
2023-05-05T18:32:56.480Z,13.60
2023-05-05T18:35:24.526Z,13.56
2023-05-05T18:37:52.470Z,13.50
2023-05-05T18:40:20.199Z,13.44
2023-05-05T18:42:48.001Z,13.33
2023-05-05T18:45:15.932Z,13.19
2023-05-05T18:47:43.994Z,13.08
2023-05-05T18:50:13.022Z,13.02
2023-05-05T18:52:41.070Z,12.98
2023-05-05T18:55:09.262Z,12.94
2023-05-05T18:57:37.464Z,12.87
2023-05-05T19:00:05.715Z,12.83
2023-05-05T19:02:33.580Z,12.79
2023-05-05T19:05:01.761Z,12.71
2023-05-05T19:07:35.363Z,12.64
2023-05-05T19:10:04.597Z,12.60
2023-05-05T19:12:32.537Z,12.57
2023-05-05T19:15:01.523Z,12.53
2023-05-05T19:17:29.520Z,12.51
2023-05-05T19:19:57.369Z,12.51
2023-05-05T19:22:25.834Z,12.50
2023-05-05T19:24:53.702Z,12.46
2023-05-05T19:27:21.652Z,12.41
2023-05-05T19:29:52.523Z,12.38
2023-05-05T19:32:21.123Z,12.36
2023-05-05T19:34:49.457Z,12.30
2023-05-05T19:37:17.320Z,12.25
2023-05-05T19:39:45.824Z,12.20
2023-05-05T19:42:13.982Z,12.12
2023-05-05T19:44:42.144Z,12.00
2023-05-05T19:47:10.987Z,11.87
2023-05-05T19:49:39.215Z,11.83
2023-05-05T19:52:07.075Z,11.76
2023-05-05T19:54:34.940Z,11.61
2023-05-05T19:57:03.324Z,11.51
2023-05-05T19:59:31.153Z,11.56
2023-05-05T20:01:59.202Z,11.68
2023-05-05T20:04:27.534Z,11.65
2023-05-05T20:06:55.478Z,11.60
2023-05-05T20:09:23.473Z,11.54
2023-05-05T20:11:51.647Z,11.51
2023-05-05T20:14:19.603Z,11.46
2023-05-05T20:16:48.088Z,11.38
2023-05-05T20:19:16.163Z,11.33
2023-05-05T20:21:44.140Z,11.30
2023-05-05T20:24:11.990Z,11.25
2023-05-05T20:26:39.811Z,11.21
2023-05-05T20:29:07.625Z,11.16
2023-05-05T20:31:35.650Z,11.13
2023-05-05T20:34:03.545Z,11.12
2023-05-05T20:36:31.305Z,11.11
2023-05-05T20:38:59.598Z,11.09
2023-05-05T20:41:27.474Z,11.04
2023-05-05T20:43:55.434Z,10.88
2023-05-05T20:46:23.328Z,10.79
2023-05-05T20:48:51.276Z,10.76
2023-05-05T20:51:19.592Z,10.74
2023-05-05T20:53:47.721Z,10.72
2023-05-05T20:56:15.625Z,10.71
2023-05-05T20:58:43.572Z,10.72
2023-05-05T21:01:11.771Z,10.77
2023-05-05T21:03:39.797Z,10.84
2023-05-05T21:06:07.758Z,10.84
2023-05-05T21:08:35.629Z,10.80
2023-05-05T21:11:08.207Z,10.74
2023-05-05T21:13:36.577Z,10.73
2023-05-05T21:16:04.667Z,10.67
2023-05-05T21:18:32.617Z,10.58
2023-05-05T21:21:00.509Z,10.48
2023-05-05T21:23:28.465Z,10.43
2023-05-05T21:25:56.735Z,10.36
2023-05-05T21:28:24.617Z,10.28
2023-05-05T21:33:23.606Z,10.21
2023-05-05T21:35:51.498Z,10.18
2023-05-05T21:38:19.259Z,10.11
2023-05-05T21:40:47.191Z,9.97
2023-05-05T21:43:15.143Z,9.83
2023-05-05T21:45:43.032Z,9.71
2023-05-05T21:48:11.004Z,9.62
2023-05-05T21:50:39.192Z,9.57
2023-05-05T21:53:07.167Z,9.55
2023-05-05T21:55:35.010Z,9.54
2023-05-05T21:58:02.898Z,9.53
2023-05-05T22:00:31.256Z,9.50
2023-05-05T22:02:59.026Z,9.48
2023-05-05T22:05:26.985Z,9.46
2023-05-05T22:07:54.960Z,9.47
2023-05-05T22:10:23.430Z,9.44
2023-05-05T22:12:51.464Z,9.38
2023-05-05T22:15:20.187Z,9.29
2023-05-05T22:17:47.994Z,9.21
2023-05-05T22:20:16.892Z,9.14
2023-05-05T22:22:44.816Z,9.09
2023-05-05T22:25:12.775Z,9.07
2023-05-05T22:27:41.167Z,9.05
2023-05-05T22:30:09.430Z,9.02
2023-05-05T22:32:37.518Z,8.98
2023-05-05T22:35:06.096Z,8.94
2023-05-05T22:37:33.846Z,8.87
2023-05-05T22:40:01.932Z,8.79
2023-05-05T22:42:30.506Z,8.72
2023-05-05T22:44:58.469Z,8.69
2023-05-05T22:47:26.376Z,8.69
2023-05-05T22:49:54.282Z,8.71
2023-05-05T22:52:22.172Z,8.72
2023-05-05T22:54:50.145Z,8.70
2023-05-05T22:57:18.114Z,8.67
2023-05-05T22:59:46.058Z,8.64
2023-05-05T23:02:13.849Z,8.62
2023-05-05T23:04:43.120Z,8.64
2023-05-05T23:07:11.922Z,8.67
2023-05-05T23:09:41.036Z,8.68
2023-05-05T23:12:09.414Z,8.68
2023-05-05T23:14:37.272Z,8.65
2023-05-05T23:17:05.425Z,8.56
2023-05-05T23:19:33.526Z,8.55
2023-05-05T23:22:01.969Z,8.55
2023-05-05T23:24:29.858Z,8.56
2023-05-05T23:27:02.286Z,8.62
2023-05-05T23:29:30.406Z,8.69
2023-05-05T23:31:58.508Z,8.66
2023-05-05T23:34:26.763Z,8.61
2023-05-05T23:36:54.662Z,8.57
2023-05-05T23:39:22.595Z,8.60
2023-05-05T23:41:50.448Z,8.64
2023-05-05T23:44:18.308Z,8.68
2023-05-05T23:46:46.575Z,8.72
2023-05-05T23:49:14.394Z,8.70
2023-05-05T23:51:42.211Z,8.63
2023-05-05T23:54:10.094Z,8.57
2023-05-05T23:56:37.998Z,8.50
2023-05-05T23:59:06.639Z,8.43
